sensor_id;sensor_type;location;lat;lon;timestamp;temperature;humidity
61412;DHT22;47278;49.732;7.690;2024-03-17T00:01:03;5.00;99.90
61412;DHT22;47278;49.732;7.690;2024-03-17T00:03:29;5.10;99.90
61412;DHT22;47278;49.732;7.690;2024-03-17T00:05:58;5.10;99.90
61412;DHT22;47278;49.732;7.690;2024-03-17T00:08:24;5.00;99.90
61412;DHT22;47278;49.732;7.690;2024-03-17T00:10:50;6.40;99.90
61412;DHT22;47278;49.732;7.690;2024-03-17T00:13:16;5.10;99.90
61412;DHT22;47278;49.732;7.690;2024-03-17T00:15:42;5.00;99.90
61412;DHT22;47278;49.732;7.690;2024-03-17T00:18:07;5.00;99.90
61412;DHT22;47278;49.732;7.690;2024-03-17T00:20:34;5.00;99.90
61412;DHT22;47278;49.732;7.690;2024-03-17T00:22:59;5.00;99.90
61412;DHT22;47278;49.732;7.690;2024-03-17T00:25:25;5.00;99.90
61412;DHT22;47278;49.732;7.690;2024-03-17T00:27:50;4.90;99.90
61412;DHT22;47278;49.732;7.690;2024-03-17T00:30:20;4.80;99.90
61412;DHT22;47278;49.732;7.690;2024-03-17T00:32:46;4.90;99.90
61412;DHT22;47278;49.732;7.690;2024-03-17T00:35:12;4.80;99.90
61412;DHT22;47278;49.732;7.690;2024-03-17T00:37:42;4.70;99.90
61412;DHT22;47278;49.732;7.690;2024-03-17T00:40:07;4.70;99.90
61412;DHT22;47278;49.732;7.690;2024-03-17T00:42:33;4.70;99.90
61412;DHT22;47278;49.732;7.690;2024-03-17T00:44:59;4.60;99.90
61412;DHT22;47278;49.732;7.690;2024-03-17T00:47:25;4.50;99.90
61412;DHT22;47278;49.732;7.690;2024-03-17T00:49:51;4.70;99.90
61412;DHT22;47278;49.732;7.690;2024-03-17T00:52:16;4.30;99.90
61412;DHT22;47278;49.732;7.690;2024-03-17T00:54:43;4.20;99.90
61412;DHT22;47278;49.732;7.690;2024-03-17T00:57:09;4.20;99.90
61412;DHT22;47278;49.732;7.690;2024-03-17T00:59:34;4.10;99.90
61412;DHT22;47278;49.732;7.690;2024-03-17T01:02:00;4.00;99.90
61412;DHT22;47278;49.732;7.690;2024-03-17T01:04:25;4.00;99.90
61412;DHT22;47278;49.732;7.690;2024-03-17T01:06:51;3.90;99.90
61412;DHT22;47278;49.732;7.690;2024-03-17T01:09:17;4.00;99.90
61412;DHT22;47278;49.732;7.690;2024-03-17T01:11:42;4.10;99.90
61412;DHT22;47278;49.732;7.690;2024-03-17T01:14:09;4.10;99.90
61412;DHT22;47278;49.732;7.690;2024-03-17T01:16:34;4.10;99.90
61412;DHT22;47278;49.732;7.690;2024-03-17T01:18:59;4.20;99.90
61412;DHT22;47278;49.732;7.690;2024-03-17T01:21:25;4.20;99.90
61412;DHT22;47278;49.732;7.690;2024-03-17T01:23:51;4.20;99.90
61412;DHT22;47278;49.732;7.690;2024-03-17T01:26:16;4.20;99.90
61412;DHT22;47278;49.732;7.690;2024-03-17T01:28:42;4.30;99.90
61412;DHT22;47278;49.732;7.690;2024-03-17T01:31:08;4.30;99.90
61412;DHT22;47278;49.732;7.690;2024-03-17T01:33:34;4.30;99.90
61412;DHT22;47278;49.732;7.690;2024-03-17T01:36:00;4.40;99.90
61412;DHT22;47278;49.732;7.690;2024-03-17T01:38:25;4.40;99.90
61412;DHT22;47278;49.732;7.690;2024-03-17T01:40:51;4.50;99.90
61412;DHT22;47278;49.732;7.690;2024-03-17T01:43:17;4.50;99.90
61412;DHT22;47278;49.732;7.690;2024-03-17T01:45:42;4.40;99.90
61412;DHT22;47278;49.732;7.690;2024-03-17T01:48:10;4.40;99.90
61412;DHT22;47278;49.732;7.690;2024-03-17T01:50:39;4.30;99.90
61412;DHT22;47278;49.732;7.690;2024-03-17T01:53:05;4.30;99.90
61412;DHT22;47278;49.732;7.690;2024-03-17T01:55:31;4.50;99.90
61412;DHT22;47278;49.732;7.690;2024-03-17T01:57:57;4.50;99.90
61412;DHT22;47278;49.732;7.690;2024-03-17T02:00:25;4.60;99.90
61412;DHT22;47278;49.732;7.690;2024-03-17T02:02:52;4.60;99.90
61412;DHT22;47278;49.732;7.690;2024-03-17T02:05:17;4.60;99.90
61412;DHT22;47278;49.732;7.690;2024-03-17T02:07:43;4.60;99.90
61412;DHT22;47278;49.732;7.690;2024-03-17T02:10:08;6.20;99.90
61412;DHT22;47278;49.732;7.690;2024-03-17T02:12:34;4.50;99.90
61412;DHT22;47278;49.732;7.690;2024-03-17T02:15:00;4.50;99.90
61412;DHT22;47278;49.732;7.690;2024-03-17T02:17:26;4.50;99.90
61412;DHT22;47278;49.732;7.690;2024-03-17T02:19:53;4.60;99.90
61412;DHT22;47278;49.732;7.690;2024-03-17T02:22:19;4.60;99.90
61412;DHT22;47278;49.732;7.690;2024-03-17T02:24:45;4.60;99.90
61412;DHT22;47278;49.732;7.690;2024-03-17T02:27:10;4.50;99.90
61412;DHT22;47278;49.732;7.690;2024-03-17T02:29:36;4.40;99.90
61412;DHT22;47278;49.732;7.690;2024-03-17T02:32:07;4.40;99.90
61412;DHT22;47278;49.732;7.690;2024-03-17T02:34:37;4.40;99.90
61412;DHT22;47278;49.732;7.690;2024-03-17T02:37:03;4.40;99.90
61412;DHT22;47278;49.732;7.690;2024-03-17T02:39:30;4.30;99.90
61412;DHT22;47278;49.732;7.690;2024-03-17T02:42:05;4.10;99.90
61412;DHT22;47278;49.732;7.690;2024-03-17T02:44:31;3.90;99.90
61412;DHT22;47278;49.732;7.690;2024-03-17T02:46:59;7.30;99.90
61412;DHT22;47278;49.732;7.690;2024-03-17T02:49:25;4.00;99.90
61412;DHT22;47278;49.732;7.690;2024-03-17T02:51:53;3.80;99.90
61412;DHT22;47278;49.732;7.690;2024-03-17T02:54:19;3.80;99.90
61412;DHT22;47278;49.732;7.690;2024-03-17T02:56:45;3.80;99.90
61412;DHT22;47278;49.732;7.690;2024-03-17T02:59:11;3.70;99.90
61412;DHT22;47278;49.732;7.690;2024-03-17T03:01:38;3.70;99.90
61412;DHT22;47278;49.732;7.690;2024-03-17T03:04:05;3.70;99.90
61412;DHT22;47278;49.732;7.690;2024-03-17T03:06:31;3.40;99.90
61412;DHT22;47278;49.732;7.690;2024-03-17T03:08:57;3.50;99.90
61412;DHT22;47278;49.732;7.690;2024-03-17T03:11:23;3.50;99.90
61412;DHT22;47278;49.732;7.690;2024-03-17T03:13:48;3.30;99.90
61412;DHT22;47278;49.732;7.690;2024-03-17T03:16:14;3.30;99.90
61412;DHT22;47278;49.732;7.690;2024-03-17T03:18:40;3.40;99.90
61412;DHT22;47278;49.732;7.690;2024-03-17T03:21:06;3.30;99.90
61412;DHT22;47278;49.732;7.690;2024-03-17T03:23:32;3.30;99.90
61412;DHT22;47278;49.732;7.690;2024-03-17T03:25:58;3.40;99.90
61412;DHT22;47278;49.732;7.690;2024-03-17T03:28:24;3.30;99.90
61412;DHT22;47278;49.732;7.690;2024-03-17T03:30:50;3.40;99.90
61412;DHT22;47278;49.732;7.690;2024-03-17T03:33:16;3.50;99.90
61412;DHT22;47278;49.732;7.690;2024-03-17T03:35:43;3.50;99.90
61412;DHT22;47278;49.732;7.690;2024-03-17T03:38:09;3.90;99.90
61412;DHT22;47278;49.732;7.690;2024-03-17T03:40:34;3.50;99.90
61412;DHT22;47278;49.732;7.690;2024-03-17T03:42:59;3.50;99.90
61412;DHT22;47278;49.732;7.690;2024-03-17T03:45:25;3.50;99.90
61412;DHT22;47278;49.732;7.690;2024-03-17T03:47:50;3.40;99.90
61412;DHT22;47278;49.732;7.690;2024-03-17T03:50:22;3.40;99.90
61412;DHT22;47278;49.732;7.690;2024-03-17T03:52:48;3.30;99.90
61412;DHT22;47278;49.732;7.690;2024-03-17T03:55:15;3.40;99.90
61412;DHT22;47278;49.732;7.690;2024-03-17T03:57:41;3.40;99.90
61412;DHT22;47278;49.732;7.690;2024-03-17T04:00:07;3.30;99.90
61412;DHT22;47278;49.732;7.690;2024-03-17T04:02:47;3.30;99.90
61412;DHT22;47278;49.732;7.690;2024-03-17T04:05:12;3.20;99.90
61412;DHT22;47278;49.732;7.690;2024-03-17T04:07:38;3.20;99.90
61412;DHT22;47278;49.732;7.690;2024-03-17T04:10:05;3.30;99.90
61412;DHT22;47278;49.732;7.690;2024-03-17T04:12:30;3.40;99.90
61412;DHT22;47278;49.732;7.690;2024-03-17T04:14:59;3.50;99.90
61412;DHT22;47278;49.732;7.690;2024-03-17T04:17:25;3.40;99.90
61412;DHT22;47278;49.732;7.690;2024-03-17T04:19:51;3.40;99.90
61412;DHT22;47278;49.732;7.690;2024-03-17T04:22:17;3.30;99.90
61412;DHT22;47278;49.732;7.690;2024-03-17T04:24:43;3.30;99.90
61412;DHT22;47278;49.732;7.690;2024-03-17T04:27:09;3.40;99.90
61412;DHT22;47278;49.732;7.690;2024-03-17T04:29:35;3.30;99.90
61412;DHT22;47278;49.732;7.690;2024-03-17T04:32:00;3.40;99.90
61412;DHT22;47278;49.732;7.690;2024-03-17T04:34:27;3.30;99.90
61412;DHT22;47278;49.732;7.690;2024-03-17T04:36:52;3.30;99.90
61412;DHT22;47278;49.732;7.690;2024-03-17T04:39:19;3.20;99.90
61412;DHT22;47278;49.732;7.690;2024-03-17T04:41:45;3.20;99.90
61412;DHT22;47278;49.732;7.690;2024-03-17T04:44:11;3.10;99.90
61412;DHT22;47278;49.732;7.690;2024-03-17T04:46:36;3.00;99.90
61412;DHT22;47278;49.732;7.690;2024-03-17T04:49:03;3.10;99.90
61412;DHT22;47278;49.732;7.690;2024-03-17T04:51:29;2.90;99.90
61412;DHT22;47278;49.732;7.690;2024-03-17T04:53:54;2.70;99.90
61412;DHT22;47278;49.732;7.690;2024-03-17T04:56:20;2.60;99.90
61412;DHT22;47278;49.732;7.690;2024-03-17T04:58:46;2.50;99.90
61412;DHT22;47278;49.732;7.690;2024-03-17T05:01:11;2.70;99.90
61412;DHT22;47278;49.732;7.690;2024-03-17T05:03:38;2.70;99.90
61412;DHT22;47278;49.732;7.690;2024-03-17T05:06:04;2.60;99.90
61412;DHT22;47278;49.732;7.690;2024-03-17T05:08:30;2.50;99.90
61412;DHT22;47278;49.732;7.690;2024-03-17T05:10:59;2.40;99.90
61412;DHT22;47278;49.732;7.690;2024-03-17T05:13:26;2.50;99.90
61412;DHT22;47278;49.732;7.690;2024-03-17T05:15:51;2.40;99.90
61412;DHT22;47278;49.732;7.690;2024-03-17T05:18:17;2.30;99.90
61412;DHT22;47278;49.732;7.690;2024-03-17T05:20:42;2.20;99.90
61412;DHT22;47278;49.732;7.690;2024-03-17T05:23:08;2.10;99.90
61412;DHT22;47278;49.732;7.690;2024-03-17T05:25:33;2.10;99.90
61412;DHT22;47278;49.732;7.690;2024-03-17T05:28:02;2.20;99.90
61412;DHT22;47278;49.732;7.690;2024-03-17T05:30:27;2.10;99.90
61412;DHT22;47278;49.732;7.690;2024-03-17T05:32:53;2.10;99.90
61412;DHT22;47278;49.732;7.690;2024-03-17T05:35:18;2.10;99.90
61412;DHT22;47278;49.732;7.690;2024-03-17T05:37:44;2.10;99.90
61412;DHT22;47278;49.732;7.690;2024-03-17T05:40:10;2.00;99.90
61412;DHT22;47278;49.732;7.690;2024-03-17T05:42:37;2.00;99.90
61412;DHT22;47278;49.732;7.690;2024-03-17T05:45:03;2.00;99.90
61412;DHT22;47278;49.732;7.690;2024-03-17T05:47:28;2.00;99.90
61412;DHT22;47278;49.732;7.690;2024-03-17T05:49:55;2.00;99.90
61412;DHT22;47278;49.732;7.690;2024-03-17T05:52:21;1.90;99.90
61412;DHT22;47278;49.732;7.690;2024-03-17T05:54:47;2.00;99.90
61412;DHT22;47278;49.732;7.690;2024-03-17T05:57:12;2.10;99.90
61412;DHT22;47278;49.732;7.690;2024-03-17T05:59:39;2.10;99.90
61412;DHT22;47278;49.732;7.690;2024-03-17T06:02:04;2.10;99.90
61412;DHT22;47278;49.732;7.690;2024-03-17T06:04:31;2.10;99.90
61412;DHT22;47278;49.732;7.690;2024-03-17T06:06:56;2.20;99.90
61412;DHT22;47278;49.732;7.690;2024-03-17T06:09:22;2.20;99.90
61412;DHT22;47278;49.732;7.690;2024-03-17T06:11:48;2.40;99.90
61412;DHT22;47278;49.732;7.690;2024-03-17T06:14:13;2.30;99.90
61412;DHT22;47278;49.732;7.690;2024-03-17T06:16:39;2.30;99.90
61412;DHT22;47278;49.732;7.690;2024-03-17T06:19:05;2.40;99.90
61412;DHT22;47278;49.732;7.690;2024-03-17T06:21:31;2.40;99.90
61412;DHT22;47278;49.732;7.690;2024-03-17T06:23:57;2.50;99.90
61412;DHT22;47278;49.732;7.690;2024-03-17T06:26:22;2.60;99.90
61412;DHT22;47278;49.732;7.690;2024-03-17T06:28:48;2.70;99.90
61412;DHT22;47278;49.732;7.690;2024-03-17T06:31:14;2.80;99.90
61412;DHT22;47278;49.732;7.690;2024-03-17T06:33:40;3.10;99.90
61412;DHT22;47278;49.732;7.690;2024-03-17T06:36:06;3.30;99.90
61412;DHT22;47278;49.732;7.690;2024-03-17T06:38:33;3.30;99.90
61412;DHT22;47278;49.732;7.690;2024-03-17T06:40:59;3.30;99.90
61412;DHT22;47278;49.732;7.690;2024-03-17T06:43:24;3.40;99.90
61412;DHT22;47278;49.732;7.690;2024-03-17T06:45:53;3.50;99.90
61412;DHT22;47278;49.732;7.690;2024-03-17T06:48:19;3.60;99.90
61412;DHT22;47278;49.732;7.690;2024-03-17T06:50:44;3.70;99.90
61412;DHT22;47278;49.732;7.690;2024-03-17T06:53:10;3.70;99.90
61412;DHT22;47278;49.732;7.690;2024-03-17T06:55:36;3.80;99.90
61412;DHT22;47278;49.732;7.690;2024-03-17T06:58:01;3.80;99.90
61412;DHT22;47278;49.732;7.690;2024-03-17T07:00:28;3.90;99.90
61412;DHT22;47278;49.732;7.690;2024-03-17T07:02:55;3.80;99.90
61412;DHT22;47278;49.732;7.690;2024-03-17T07:05:20;4.00;99.90
61412;DHT22;47278;49.732;7.690;2024-03-17T07:07:46;4.00;99.90
61412;DHT22;47278;49.732;7.690;2024-03-17T07:10:12;4.00;99.90
61412;DHT22;47278;49.732;7.690;2024-03-17T07:12:38;4.00;99.90
61412;DHT22;47278;49.732;7.690;2024-03-17T07:15:04;4.10;99.90
61412;DHT22;47278;49.732;7.690;2024-03-17T07:17:30;4.00;99.90
61412;DHT22;47278;49.732;7.690;2024-03-17T07:19:55;4.10;99.90
61412;DHT22;47278;49.732;7.690;2024-03-17T07:22:21;4.30;99.90
61412;DHT22;47278;49.732;7.690;2024-03-17T07:24:48;4.40;99.90
61412;DHT22;47278;49.732;7.690;2024-03-17T07:27:15;4.50;99.90
61412;DHT22;47278;49.732;7.690;2024-03-17T07:29:40;4.60;99.90
61412;DHT22;47278;49.732;7.690;2024-03-17T07:32:07;4.50;99.90
61412;DHT22;47278;49.732;7.690;2024-03-17T07:34:32;4.60;99.90
61412;DHT22;47278;49.732;7.690;2024-03-17T07:36:58;4.60;99.90
61412;DHT22;47278;49.732;7.690;2024-03-17T07:39:31;4.70;99.90
61412;DHT22;47278;49.732;7.690;2024-03-17T07:42:00;4.80;99.90
61412;DHT22;47278;49.732;7.690;2024-03-17T07:44:27;5.00;99.90
61412;DHT22;47278;49.732;7.690;2024-03-17T07:46:54;5.10;99.90
61412;DHT22;47278;49.732;7.690;2024-03-17T07:49:19;5.40;99.90
61412;DHT22;47278;49.732;7.690;2024-03-17T07:51:45;5.10;99.90
61412;DHT22;47278;49.732;7.690;2024-03-17T07:54:11;5.20;99.90
61412;DHT22;47278;49.732;7.690;2024-03-17T07:56:38;5.00;99.90
61412;DHT22;47278;49.732;7.690;2024-03-17T07:59:04;5.10;99.90
61412;DHT22;47278;49.732;7.690;2024-03-17T08:01:36;6.30;99.90
61412;DHT22;47278;49.732;7.690;2024-03-17T08:04:02;5.20;99.90
61412;DHT22;47278;49.732;7.690;2024-03-17T08:06:29;5.30;99.90
61412;DHT22;47278;49.732;7.690;2024-03-17T08:08:54;5.30;99.90
61412;DHT22;47278;49.732;7.690;2024-03-17T08:11:20;5.70;99.90
61412;DHT22;47278;49.732;7.690;2024-03-17T08:13:46;5.50;99.90
61412;DHT22;47278;49.732;7.690;2024-03-17T08:16:11;6.20;99.90
61412;DHT22;47278;49.732;7.690;2024-03-17T08:18:38;5.80;99.90
61412;DHT22;47278;49.732;7.690;2024-03-17T08:21:03;5.80;99.90
61412;DHT22;47278;49.732;7.690;2024-03-17T08:23:31;5.70;99.90
61412;DHT22;47278;49.732;7.690;2024-03-17T08:25:57;5.60;99.90
61412;DHT22;47278;49.732;7.690;2024-03-17T08:28:23;6.10;99.90
61412;DHT22;47278;49.732;7.690;2024-03-17T08:30:56;6.10;99.90
61412;DHT22;47278;49.732;7.690;2024-03-17T08:33:22;6.20;99.90
61412;DHT22;47278;49.732;7.690;2024-03-17T08:38:19;6.40;99.90
61412;DHT22;47278;49.732;7.690;2024-03-17T08:40:46;6.50;99.90
61412;DHT22;47278;49.732;7.690;2024-03-17T08:43:12;6.60;99.90
61412;DHT22;47278;49.732;7.690;2024-03-17T08:45:38;6.90;99.90
61412;DHT22;47278;49.732;7.690;2024-03-17T08:48:03;7.00;99.90
61412;DHT22;47278;49.732;7.690;2024-03-17T08:50:29;6.80;99.90
61412;DHT22;47278;49.732;7.690;2024-03-17T08:52:58;7.20;99.90
61412;DHT22;47278;49.732;7.690;2024-03-17T08:55:24;7.00;99.90
61412;DHT22;47278;49.732;7.690;2024-03-17T08:57:50;7.90;99.90
61412;DHT22;47278;49.732;7.690;2024-03-17T09:00:15;7.50;99.90
61412;DHT22;47278;49.732;7.690;2024-03-17T09:02:41;7.60;99.90
61412;DHT22;47278;49.732;7.690;2024-03-17T09:05:07;8.90;99.90
61412;DHT22;47278;49.732;7.690;2024-03-17T09:07:33;8.20;99.90
61412;DHT22;47278;49.732;7.690;2024-03-17T09:09:59;8.30;99.90
61412;DHT22;47278;49.732;7.690;2024-03-17T09:12:25;9.70;99.90
61412;DHT22;47278;49.732;7.690;2024-03-17T09:14:51;8.50;99.90
61412;DHT22;47278;49.732;7.690;2024-03-17T09:17:16;8.80;99.90
61412;DHT22;47278;49.732;7.690;2024-03-17T09:19:44;10.10;99.90
61412;DHT22;47278;49.732;7.690;2024-03-17T09:22:10;9.20;99.90
61412;DHT22;47278;49.732;7.690;2024-03-17T09:24:36;9.60;99.90
61412;DHT22;47278;49.732;7.690;2024-03-17T09:27:01;9.70;99.90
61412;DHT22;47278;49.732;7.690;2024-03-17T09:29:27;9.60;99.90
61412;DHT22;47278;49.732;7.690;2024-03-17T09:31:53;9.90;99.90
61412;DHT22;47278;49.732;7.690;2024-03-17T09:34:18;9.90;99.90
61412;DHT22;47278;49.732;7.690;2024-03-17T09:36:44;10.00;99.90
61412;DHT22;47278;49.732;7.690;2024-03-17T09:39:11;9.60;99.90
61412;DHT22;47278;49.732;7.690;2024-03-17T09:41:39;10.00;99.90
61412;DHT22;47278;49.732;7.690;2024-03-17T09:44:06;10.10;99.90
61412;DHT22;47278;49.732;7.690;2024-03-17T09:46:35;10.30;99.90
61412;DHT22;47278;49.732;7.690;2024-03-17T09:49:00;10.10;99.90
61412;DHT22;47278;49.732;7.690;2024-03-17T09:51:26;10.10;99.90
61412;DHT22;47278;49.732;7.690;2024-03-17T09:53:51;10.40;99.90
61412;DHT22;47278;49.732;7.690;2024-03-17T09:56:20;10.20;99.90
61412;DHT22;47278;49.732;7.690;2024-03-17T09:58:50;10.20;99.90
61412;DHT22;47278;49.732;7.690;2024-03-17T10:01:16;10.10;99.90
61412;DHT22;47278;49.732;7.690;2024-03-17T10:03:45;9.90;99.90
61412;DHT22;47278;49.732;7.690;2024-03-17T10:06:13;10.30;99.90
61412;DHT22;47278;49.732;7.690;2024-03-17T10:11:08;10.30;99.90
61412;DHT22;47278;49.732;7.690;2024-03-17T10:13:33;10.70;99.90
61412;DHT22;47278;49.732;7.690;2024-03-17T10:15:59;11.10;99.90
61412;DHT22;47278;49.732;7.690;2024-03-17T10:18:24;11.00;99.90
61412;DHT22;47278;49.732;7.690;2024-03-17T10:20:50;11.20;99.90
61412;DHT22;47278;49.732;7.690;2024-03-17T10:23:23;11.20;99.90
61412;DHT22;47278;49.732;7.690;2024-03-17T10:25:49;11.20;99.90
61412;DHT22;47278;49.732;7.690;2024-03-17T10:28:16;11.40;99.90
61412;DHT22;47278;49.732;7.690;2024-03-17T10:30:42;11.50;99.90
61412;DHT22;47278;49.732;7.690;2024-03-17T10:33:19;11.60;99.90
61412;DHT22;47278;49.732;7.690;2024-03-17T10:35:47;11.70;99.90
61412;DHT22;47278;49.732;7.690;2024-03-17T10:38:14;12.30;99.90
61412;DHT22;47278;49.732;7.690;2024-03-17T10:40:40;12.60;99.90
61412;DHT22;47278;49.732;7.690;2024-03-17T10:43:06;12.60;99.90
61412;DHT22;47278;49.732;7.690;2024-03-17T10:45:32;12.00;99.90
61412;DHT22;47278;49.732;7.690;2024-03-17T10:48:01;11.90;99.90
61412;DHT22;47278;49.732;7.690;2024-03-17T10:50:29;12.10;99.90
61412;DHT22;47278;49.732;7.690;2024-03-17T10:52:55;11.80;99.90
61412;DHT22;47278;49.732;7.690;2024-03-17T10:55:24;11.90;99.90
61412;DHT22;47278;49.732;7.690;2024-03-17T10:57:51;12.20;99.90
61412;DHT22;47278;49.732;7.690;2024-03-17T11:00:17;12.50;99.90
61412;DHT22;47278;49.732;7.690;2024-03-17T11:02:44;12.60;99.90
61412;DHT22;47278;49.732;7.690;2024-03-17T11:05:14;12.40;99.90
61412;DHT22;47278;49.732;7.690;2024-03-17T11:07:41;12.40;99.90
61412;DHT22;47278;49.732;7.690;2024-03-17T11:10:16;12.40;99.90
61412;DHT22;47278;49.732;7.690;2024-03-17T11:12:50;12.80;99.90
61412;DHT22;47278;49.732;7.690;2024-03-17T11:17:45;12.60;99.90
61412;DHT22;47278;49.732;7.690;2024-03-17T11:20:13;12.50;99.90
61412;DHT22;47278;49.732;7.690;2024-03-17T11:22:43;12.40;99.90
61412;DHT22;47278;49.732;7.690;2024-03-17T11:27:53;12.90;99.90
61412;DHT22;47278;49.732;7.690;2024-03-17T11:33:03;12.90;99.90
61412;DHT22;47278;49.732;7.690;2024-03-17T11:35:29;12.80;99.90
61412;DHT22;47278;49.732;7.690;2024-03-17T11:37:54;12.90;99.90
61412;DHT22;47278;49.732;7.690;2024-03-17T11:40:24;12.90;99.90
61412;DHT22;47278;49.732;7.690;2024-03-17T11:43:02;12.90;99.90
61412;DHT22;47278;49.732;7.690;2024-03-17T11:45:30;13.10;99.90
61412;DHT22;47278;49.732;7.690;2024-03-17T11:47:55;13.20;99.90
61412;DHT22;47278;49.732;7.690;2024-03-17T11:50:21;13.20;99.90
61412;DHT22;47278;49.732;7.690;2024-03-17T11:52:46;13.50;99.90
61412;DHT22;47278;49.732;7.690;2024-03-17T11:55:22;13.90;99.90
61412;DHT22;47278;49.732;7.690;2024-03-17T11:57:48;13.80;99.90
61412;DHT22;47278;49.732;7.690;2024-03-17T12:00:21;14.30;99.90
61412;DHT22;47278;49.732;7.690;2024-03-17T12:02:48;14.50;99.90
61412;DHT22;47278;49.732;7.690;2024-03-17T12:05:14;14.40;99.90
61412;DHT22;47278;49.732;7.690;2024-03-17T12:07:44;14.10;99.90
61412;DHT22;47278;49.732;7.690;2024-03-17T12:10:10;14.00;99.90
61412;DHT22;47278;49.732;7.690;2024-03-17T12:12:36;13.90;99.90
61412;DHT22;47278;49.732;7.690;2024-03-17T12:15:02;14.20;99.90
61412;DHT22;47278;49.732;7.690;2024-03-17T12:17:28;14.20;99.90
61412;DHT22;47278;49.732;7.690;2024-03-17T12:19:54;14.50;99.90
61412;DHT22;47278;49.732;7.690;2024-03-17T12:22:21;14.60;99.90
61412;DHT22;47278;49.732;7.690;2024-03-17T12:24:50;14.50;99.90
61412;DHT22;47278;49.732;7.690;2024-03-17T12:27:19;14.50;99.90
61412;DHT22;47278;49.732;7.690;2024-03-17T12:29:46;14.10;99.90
61412;DHT22;47278;49.732;7.690;2024-03-17T12:32:13;14.00;99.90
61412;DHT22;47278;49.732;7.690;2024-03-17T12:34:39;13.90;99.90
61412;DHT22;47278;49.732;7.690;2024-03-17T12:37:05;14.10;99.90
61412;DHT22;47278;49.732;7.690;2024-03-17T12:44:35;14.00;99.90
61412;DHT22;47278;49.732;7.690;2024-03-17T12:47:02;14.00;99.90
61412;DHT22;47278;49.732;7.690;2024-03-17T12:49:28;13.90;99.90
61412;DHT22;47278;49.732;7.690;2024-03-17T12:51:54;13.90;99.90
61412;DHT22;47278;49.732;7.690;2024-03-17T12:54:21;13.80;99.90
61412;DHT22;47278;49.732;7.690;2024-03-17T12:56:48;13.60;99.90
61412;DHT22;47278;49.732;7.690;2024-03-17T12:59:36;13.40;99.90
61412;DHT22;47278;49.732;7.690;2024-03-17T13:02:21;13.50;99.90
61412;DHT22;47278;49.732;7.690;2024-03-17T13:05:04;13.60;99.90
61412;DHT22;47278;49.732;7.690;2024-03-17T13:07:30;13.60;99.90
61412;DHT22;47278;49.732;7.690;2024-03-17T13:09:55;13.60;99.90
61412;DHT22;47278;49.732;7.690;2024-03-17T13:12:21;13.70;99.90
61412;DHT22;47278;49.732;7.690;2024-03-17T13:14:46;13.80;99.90
61412;DHT22;47278;49.732;7.690;2024-03-17T13:17:14;13.90;99.90
61412;DHT22;47278;49.732;7.690;2024-03-17T13:19:41;13.90;99.90
61412;DHT22;47278;49.732;7.690;2024-03-17T13:22:07;13.90;99.90
61412;DHT22;47278;49.732;7.690;2024-03-17T13:24:33;13.90;99.90
61412;DHT22;47278;49.732;7.690;2024-03-17T13:26:59;14.30;99.90
61412;DHT22;47278;49.732;7.690;2024-03-17T13:29:30;14.40;99.90
61412;DHT22;47278;49.732;7.690;2024-03-17T13:31:55;14.50;99.90
61412;DHT22;47278;49.732;7.690;2024-03-17T13:34:21;14.40;99.90
61412;DHT22;47278;49.732;7.690;2024-03-17T13:36:46;14.40;99.90
61412;DHT22;47278;49.732;7.690;2024-03-17T13:39:12;14.20;99.90
61412;DHT22;47278;49.732;7.690;2024-03-17T13:41:39;14.30;99.90
61412;DHT22;47278;49.732;7.690;2024-03-17T13:44:05;14.30;99.90
61412;DHT22;47278;49.732;7.690;2024-03-17T13:46:30;14.40;99.90
61412;DHT22;47278;49.732;7.690;2024-03-17T13:48:57;14.40;99.90
61412;DHT22;47278;49.732;7.690;2024-03-17T13:51:25;14.50;99.90
61412;DHT22;47278;49.732;7.690;2024-03-17T13:53:50;14.70;99.90
61412;DHT22;47278;49.732;7.690;2024-03-17T13:56:16;14.90;99.90
61412;DHT22;47278;49.732;7.690;2024-03-17T13:58:41;15.10;99.90
61412;DHT22;47278;49.732;7.690;2024-03-17T14:01:07;14.40;99.90
61412;DHT22;47278;49.732;7.690;2024-03-17T14:03:33;14.70;99.90
61412;DHT22;47278;49.732;7.690;2024-03-17T14:05:58;14.80;99.90
61412;DHT22;47278;49.732;7.690;2024-03-17T14:08:24;14.80;99.90
61412;DHT22;47278;49.732;7.690;2024-03-17T14:10:51;14.90;99.90
61412;DHT22;47278;49.732;7.690;2024-03-17T14:13:16;15.20;99.90
61412;DHT22;47278;49.732;7.690;2024-03-17T14:15:42;15.40;99.90
61412;DHT22;47278;49.732;7.690;2024-03-17T14:18:07;15.10;99.90
61412;DHT22;47278;49.732;7.690;2024-03-17T14:20:33;15.30;99.90
61412;DHT22;47278;49.732;7.690;2024-03-17T14:22:59;15.40;99.90
61412;DHT22;47278;49.732;7.690;2024-03-17T14:25:24;15.30;99.90
61412;DHT22;47278;49.732;7.690;2024-03-17T14:27:50;15.30;99.90
61412;DHT22;47278;49.732;7.690;2024-03-17T14:30:17;15.10;99.90
61412;DHT22;47278;49.732;7.690;2024-03-17T14:32:43;15.50;99.90
61412;DHT22;47278;49.732;7.690;2024-03-17T14:35:18;15.70;99.90
61412;DHT22;47278;49.732;7.690;2024-03-17T14:37:45;16.20;99.90
61412;DHT22;47278;49.732;7.690;2024-03-17T14:40:14;16.40;99.90
61412;DHT22;47278;49.732;7.690;2024-03-17T14:42:51;16.20;99.90
61412;DHT22;47278;49.732;7.690;2024-03-17T14:45:17;15.70;99.90
61412;DHT22;47278;49.732;7.690;2024-03-17T14:47:45;15.50;99.90
61412;DHT22;47278;49.732;7.690;2024-03-17T14:50:11;15.20;99.90
61412;DHT22;47278;49.732;7.690;2024-03-17T14:52:41;15.10;99.90
61412;DHT22;47278;49.732;7.690;2024-03-17T14:55:08;14.80;99.90
61412;DHT22;47278;49.732;7.690;2024-03-17T14:57:35;15.00;99.90
61412;DHT22;47278;49.732;7.690;2024-03-17T15:00:04;14.90;99.90
61412;DHT22;47278;49.732;7.690;2024-03-17T15:02:48;14.80;99.90
61412;DHT22;47278;49.732;7.690;2024-03-17T15:05:14;14.60;99.90
61412;DHT22;47278;49.732;7.690;2024-03-17T15:07:40;14.50;99.90
61412;DHT22;47278;49.732;7.690;2024-03-17T15:10:06;14.50;99.90
61412;DHT22;47278;49.732;7.690;2024-03-17T15:12:32;14.50;99.90
61412;DHT22;47278;49.732;7.690;2024-03-17T15:14:57;14.40;99.90
61412;DHT22;47278;49.732;7.690;2024-03-17T15:17:23;14.20;99.90
61412;DHT22;47278;49.732;7.690;2024-03-17T15:19:48;14.10;99.90
61412;DHT22;47278;49.732;7.690;2024-03-17T15:22:15;14.10;99.90
61412;DHT22;47278;49.732;7.690;2024-03-17T15:24:40;14.20;99.90
61412;DHT22;47278;49.732;7.690;2024-03-17T15:27:06;14.30;99.90
61412;DHT22;47278;49.732;7.690;2024-03-17T15:29:32;14.30;99.90
61412;DHT22;47278;49.732;7.690;2024-03-17T15:31:57;14.20;99.90
61412;DHT22;47278;49.732;7.690;2024-03-17T15:34:23;14.10;99.90
61412;DHT22;47278;49.732;7.690;2024-03-17T15:36:48;14.10;99.90
61412;DHT22;47278;49.732;7.690;2024-03-17T15:39:15;14.00;99.90
61412;DHT22;47278;49.732;7.690;2024-03-17T15:41:41;14.00;99.90
61412;DHT22;47278;49.732;7.690;2024-03-17T15:44:06;13.90;99.90
61412;DHT22;47278;49.732;7.690;2024-03-17T15:46:32;14.00;99.90
61412;DHT22;47278;49.732;7.690;2024-03-17T15:48:57;13.90;99.90
61412;DHT22;47278;49.732;7.690;2024-03-17T15:51:26;13.90;99.90
61412;DHT22;47278;49.732;7.690;2024-03-17T15:53:52;13.80;99.90